sensor_id;sensor_type;location;lat;lon;timestamp;temperature;humidity
16825;DHT22;8529;48.108;-1.706;2023-04-01T00:01:42;11.70;99.90
16825;DHT22;8529;48.108;-1.706;2023-04-01T00:04:09;11.70;99.90
16825;DHT22;8529;48.108;-1.706;2023-04-01T00:06:36;11.70;99.90
16825;DHT22;8529;48.108;-1.706;2023-04-01T00:09:04;11.70;99.90
16825;DHT22;8529;48.108;-1.706;2023-04-01T00:11:35;11.60;99.90
16825;DHT22;8529;48.108;-1.706;2023-04-01T00:14:08;11.60;99.90
16825;DHT22;8529;48.108;-1.706;2023-04-01T00:16:40;11.60;99.90
16825;DHT22;8529;48.108;-1.706;2023-04-01T00:19:12;11.60;99.90
16825;DHT22;8529;48.108;-1.706;2023-04-01T00:21:43;11.60;99.90
16825;DHT22;8529;48.108;-1.706;2023-04-01T00:24:13;11.50;99.90
16825;DHT22;8529;48.108;-1.706;2023-04-01T00:26:43;11.50;99.90
16825;DHT22;8529;48.108;-1.706;2023-04-01T00:29:11;11.50;99.90
16825;DHT22;8529;48.108;-1.706;2023-04-01T00:31:43;11.50;99.90
16825;DHT22;8529;48.108;-1.706;2023-04-01T00:34:25;11.50;99.90
16825;DHT22;8529;48.108;-1.706;2023-04-01T00:36:57;11.50;99.90
16825;DHT22;8529;48.108;-1.706;2023-04-01T00:39:30;11.40;99.90
16825;DHT22;8529;48.108;-1.706;2023-04-01T00:42:01;11.40;99.90
16825;DHT22;8529;48.108;-1.706;2023-04-01T00:44:38;11.40;99.90
16825;DHT22;8529;48.108;-1.706;2023-04-01T00:47:13;11.40;99.90
16825;DHT22;8529;48.108;-1.706;2023-04-01T00:49:49;11.40;99.90
16825;DHT22;8529;48.108;-1.706;2023-04-01T00:52:23;11.40;99.90
16825;DHT22;8529;48.108;-1.706;2023-04-01T00:54:57;11.40;99.90
16825;DHT22;8529;48.108;-1.706;2023-04-01T00:57:32;11.50;99.90
16825;DHT22;8529;48.108;-1.706;2023-04-01T01:00:03;11.50;99.90
16825;DHT22;8529;48.108;-1.706;2023-04-01T01:02:33;11.50;99.90
16825;DHT22;8529;48.108;-1.706;2023-04-01T01:05:01;11.60;99.90
16825;DHT22;8529;48.108;-1.706;2023-04-01T01:07:35;11.60;99.90
16825;DHT22;8529;48.108;-1.706;2023-04-01T01:10:09;11.50;99.90
16825;DHT22;8529;48.108;-1.706;2023-04-01T01:12:41;11.50;99.90
16825;DHT22;8529;48.108;-1.706;2023-04-01T01:15:18;11.40;99.90
16825;DHT22;8529;48.108;-1.706;2023-04-01T01:17:52;11.40;99.90
16825;DHT22;8529;48.108;-1.706;2023-04-01T01:23:54;11.40;99.90
16825;DHT22;8529;48.108;-1.706;2023-04-01T01:26:53;11.40;99.90
16825;DHT22;8529;48.108;-1.706;2023-04-01T01:32:43;11.40;99.90
16825;DHT22;8529;48.108;-1.706;2023-04-01T01:35:21;11.40;99.90
16825;DHT22;8529;48.108;-1.706;2023-04-01T01:37:52;11.40;99.90
16825;DHT22;8529;48.108;-1.706;2023-04-01T01:40:20;11.40;99.90
16825;DHT22;8529;48.108;-1.706;2023-04-01T01:42:51;11.50;99.90
16825;DHT22;8529;48.108;-1.706;2023-04-01T01:45:20;11.50;99.90
16825;DHT22;8529;48.108;-1.706;2023-04-01T01:47:49;11.40;99.90
16825;DHT22;8529;48.108;-1.706;2023-04-01T01:50:18;11.40;99.90
16825;DHT22;8529;48.108;-1.706;2023-04-01T01:52:46;11.40;99.90
16825;DHT22;8529;48.108;-1.706;2023-04-01T01:55:27;11.40;99.90
16825;DHT22;8529;48.108;-1.706;2023-04-01T01:57:55;11.40;99.90
16825;DHT22;8529;48.108;-1.706;2023-04-01T02:00:24;11.40;99.90
16825;DHT22;8529;48.108;-1.706;2023-04-01T02:02:50;11.30;99.90
16825;DHT22;8529;48.108;-1.706;2023-04-01T02:05:20;11.30;99.90
16825;DHT22;8529;48.108;-1.706;2023-04-01T02:07:51;11.20;99.90
16825;DHT22;8529;48.108;-1.706;2023-04-01T02:10:22;11.20;99.90
16825;DHT22;8529;48.108;-1.706;2023-04-01T02:12:52;11.20;99.90
16825;DHT22;8529;48.108;-1.706;2023-04-01T02:15:20;11.30;99.90
16825;DHT22;8529;48.108;-1.706;2023-04-01T02:17:48;11.30;99.90
16825;DHT22;8529;48.108;-1.706;2023-04-01T02:20:20;11.30;99.90
16825;DHT22;8529;48.108;-1.706;2023-04-01T02:22:49;11.30;99.90
16825;DHT22;8529;48.108;-1.706;2023-04-01T02:25:20;11.30;99.90
16825;DHT22;8529;48.108;-1.706;2023-04-01T02:27:47;11.20;99.90
16825;DHT22;8529;48.108;-1.706;2023-04-01T02:30:15;11.20;99.90
16825;DHT22;8529;48.108;-1.706;2023-04-01T02:32:43;11.20;99.90
16825;DHT22;8529;48.108;-1.706;2023-04-01T02:35:12;11.10;99.90
16825;DHT22;8529;48.108;-1.706;2023-04-01T02:37:42;11.10;99.90
16825;DHT22;8529;48.108;-1.706;2023-04-01T02:40:12;11.10;99.90
16825;DHT22;8529;48.108;-1.706;2023-04-01T02:42:40;11.10;99.90
16825;DHT22;8529;48.108;-1.706;2023-04-01T02:45:08;11.10;99.90
16825;DHT22;8529;48.108;-1.706;2023-04-01T02:47:35;11.10;99.90
16825;DHT22;8529;48.108;-1.706;2023-04-01T02:50:04;11.10;99.90
16825;DHT22;8529;48.108;-1.706;2023-04-01T02:52:31;11.10;99.90
16825;DHT22;8529;48.108;-1.706;2023-04-01T02:54:59;11.10;99.90
16825;DHT22;8529;48.108;-1.706;2023-04-01T02:57:26;11.00;99.90
16825;DHT22;8529;48.108;-1.706;2023-04-01T02:59:53;11.00;99.90
16825;DHT22;8529;48.108;-1.706;2023-04-01T03:02:20;11.00;99.90
16825;DHT22;8529;48.108;-1.706;2023-04-01T03:04:46;11.00;99.90
16825;DHT22;8529;48.108;-1.706;2023-04-01T03:07:13;11.00;99.90
16825;DHT22;8529;48.108;-1.706;2023-04-01T03:09:40;10.90;99.90
16825;DHT22;8529;48.108;-1.706;2023-04-01T03:12:08;10.90;99.90
16825;DHT22;8529;48.108;-1.706;2023-04-01T03:14:35;10.90;99.90
16825;DHT22;8529;48.108;-1.706;2023-04-01T03:17:02;11.00;99.90
16825;DHT22;8529;48.108;-1.706;2023-04-01T03:19:29;11.00;99.90
16825;DHT22;8529;48.108;-1.706;2023-04-01T03:21:56;11.00;99.90
16825;DHT22;8529;48.108;-1.706;2023-04-01T03:24:23;10.90;99.90
16825;DHT22;8529;48.108;-1.706;2023-04-01T03:26:49;10.90;99.90
16825;DHT22;8529;48.108;-1.706;2023-04-01T03:29:18;10.90;99.90
16825;DHT22;8529;48.108;-1.706;2023-04-01T03:31:44;10.90;99.90
16825;DHT22;8529;48.108;-1.706;2023-04-01T03:34:11;10.90;99.90
16825;DHT22;8529;48.108;-1.706;2023-04-01T03:36:38;10.80;99.90
16825;DHT22;8529;48.108;-1.706;2023-04-01T03:39:05;10.80;99.90
16825;DHT22;8529;48.108;-1.706;2023-04-01T03:41:32;10.80;99.90
16825;DHT22;8529;48.108;-1.706;2023-04-01T03:44:01;10.80;99.90
16825;DHT22;8529;48.108;-1.706;2023-04-01T03:46:29;10.80;99.90
16825;DHT22;8529;48.108;-1.706;2023-04-01T03:48:56;10.80;99.90
16825;DHT22;8529;48.108;-1.706;2023-04-01T03:51:23;10.90;99.90
16825;DHT22;8529;48.108;-1.706;2023-04-01T03:53:50;10.90;99.90
16825;DHT22;8529;48.108;-1.706;2023-04-01T03:56:17;10.90;99.90
16825;DHT22;8529;48.108;-1.706;2023-04-01T03:58:44;10.90;99.90
16825;DHT22;8529;48.108;-1.706;2023-04-01T04:01:15;10.90;99.90
16825;DHT22;8529;48.108;-1.706;2023-04-01T04:03:43;11.00;99.90
16825;DHT22;8529;48.108;-1.706;2023-04-01T04:06:12;11.00;99.90
16825;DHT22;8529;48.108;-1.706;2023-04-01T04:08:39;11.00;99.90
16825;DHT22;8529;48.108;-1.706;2023-04-01T04:11:06;11.00;99.90
16825;DHT22;8529;48.108;-1.706;2023-04-01T04:13:33;11.00;99.90
16825;DHT22;8529;48.108;-1.706;2023-04-01T04:16:00;11.10;99.90
16825;DHT22;8529;48.108;-1.706;2023-04-01T04:18:26;11.10;99.90
16825;DHT22;8529;48.108;-1.706;2023-04-01T04:20:55;11.00;99.90
16825;DHT22;8529;48.108;-1.706;2023-04-01T04:23:22;11.00;99.90
16825;DHT22;8529;48.108;-1.706;2023-04-01T04:25:56;11.10;99.90
16825;DHT22;8529;48.108;-1.706;2023-04-01T04:28:23;11.10;99.90
16825;DHT22;8529;48.108;-1.706;2023-04-01T04:30:50;11.10;99.90
16825;DHT22;8529;48.108;-1.706;2023-04-01T04:33:17;11.10;99.90
16825;DHT22;8529;48.108;-1.706;2023-04-01T04:35:44;11.10;99.90
16825;DHT22;8529;48.108;-1.706;2023-04-01T04:38:13;11.10;99.90
16825;DHT22;8529;48.108;-1.706;2023-04-01T04:40:41;11.00;99.90
16825;DHT22;8529;48.108;-1.706;2023-04-01T04:43:10;11.00;99.90
16825;DHT22;8529;48.108;-1.706;2023-04-01T04:45:37;10.90;99.90
16825;DHT22;8529;48.108;-1.706;2023-04-01T04:48:06;10.90;99.90
16825;DHT22;8529;48.108;-1.706;2023-04-01T04:50:33;10.90;99.90
16825;DHT22;8529;48.108;-1.706;2023-04-01T04:53:00;10.90;99.90
16825;DHT22;8529;48.108;-1.706;2023-04-01T04:55:28;10.90;99.90
16825;DHT22;8529;48.108;-1.706;2023-04-01T04:57:55;10.90;99.90
16825;DHT22;8529;48.108;-1.706;2023-04-01T05:00:22;10.90;99.90
16825;DHT22;8529;48.108;-1.706;2023-04-01T05:02:49;10.90;99.90
16825;DHT22;8529;48.108;-1.706;2023-04-01T05:05:16;10.90;99.90
16825;DHT22;8529;48.108;-1.706;2023-04-01T05:07:43;10.90;99.90
16825;DHT22;8529;48.108;-1.706;2023-04-01T05:10:10;10.90;99.90
16825;DHT22;8529;48.108;-1.706;2023-04-01T05:12:38;10.80;99.90
16825;DHT22;8529;48.108;-1.706;2023-04-01T05:15:06;10.80;99.90
16825;DHT22;8529;48.108;-1.706;2023-04-01T05:17:33;10.80;99.90
16825;DHT22;8529;48.108;-1.706;2023-04-01T05:20:00;10.80;99.90
16825;DHT22;8529;48.108;-1.706;2023-04-01T05:22:27;10.70;99.90
16825;DHT22;8529;48.108;-1.706;2023-04-01T05:24:54;10.70;99.90
16825;DHT22;8529;48.108;-1.706;2023-04-01T05:27:21;10.70;99.90
16825;DHT22;8529;48.108;-1.706;2023-04-01T05:29:50;10.70;99.90
16825;DHT22;8529;48.108;-1.706;2023-04-01T05:32:16;10.60;99.90
16825;DHT22;8529;48.108;-1.706;2023-04-01T05:34:43;10.70;99.90
16825;DHT22;8529;48.108;-1.706;2023-04-01T05:37:10;10.60;99.90
16825;DHT22;8529;48.108;-1.706;2023-04-01T05:39:37;10.50;99.90
16825;DHT22;8529;48.108;-1.706;2023-04-01T05:42:05;10.50;99.90
16825;DHT22;8529;48.108;-1.706;2023-04-01T05:44:33;10.50;99.90
16825;DHT22;8529;48.108;-1.706;2023-04-01T05:47:02;10.50;99.90
16825;DHT22;8529;48.108;-1.706;2023-04-01T05:49:29;10.40;99.90
16825;DHT22;8529;48.108;-1.706;2023-04-01T05:51:56;10.40;99.90
16825;DHT22;8529;48.108;-1.706;2023-04-01T05:54:23;10.40;99.90
16825;DHT22;8529;48.108;-1.706;2023-04-01T05:56:50;10.30;99.90
16825;DHT22;8529;48.108;-1.706;2023-04-01T05:59:17;10.30;99.90
16825;DHT22;8529;48.108;-1.706;2023-04-01T06:01:43;10.30;99.90
16825;DHT22;8529;48.108;-1.706;2023-04-01T06:04:14;10.30;99.90
16825;DHT22;8529;48.108;-1.706;2023-04-01T06:06:42;10.30;99.90
16825;DHT22;8529;48.108;-1.706;2023-04-01T06:09:15;10.30;99.90
16825;DHT22;8529;48.108;-1.706;2023-04-01T06:11:55;10.40;99.90
16825;DHT22;8529;48.108;-1.706;2023-04-01T06:14:33;10.40;99.90
16825;DHT22;8529;48.108;-1.706;2023-04-01T06:17:16;10.40;99.90
16825;DHT22;8529;48.108;-1.706;2023-04-01T06:19:53;10.50;99.90
16825;DHT22;8529;48.108;-1.706;2023-04-01T06:22:37;10.50;99.90
16825;DHT22;8529;48.108;-1.706;2023-04-01T06:31:50;10.50;99.90
16825;DHT22;8529;48.108;-1.706;2023-04-01T06:34:35;10.50;99.90
16825;DHT22;8529;48.108;-1.706;2023-04-01T06:40:30;10.40;99.90
16825;DHT22;8529;48.108;-1.706;2023-04-01T06:43:07;10.40;99.90
16825;DHT22;8529;48.108;-1.706;2023-04-01T06:45:41;10.50;99.90
16825;DHT22;8529;48.108;-1.706;2023-04-01T06:48:33;10.50;99.90
16825;DHT22;8529;48.108;-1.706;2023-04-01T06:51:09;10.50;99.90
16825;DHT22;8529;48.108;-1.706;2023-04-01T06:53:46;10.60;99.90
16825;DHT22;8529;48.108;-1.706;2023-04-01T06:56:22;10.50;99.90
16825;DHT22;8529;48.108;-1.706;2023-04-01T06:58:53;10.60;99.90
16825;DHT22;8529;48.108;-1.706;2023-04-01T07:01:23;10.50;99.90
16825;DHT22;8529;48.108;-1.706;2023-04-01T07:03:55;10.50;99.90
16825;DHT22;8529;48.108;-1.706;2023-04-01T07:06:26;10.50;99.90
16825;DHT22;8529;48.108;-1.706;2023-04-01T07:08:59;10.60;99.90
16825;DHT22;8529;48.108;-1.706;2023-04-01T07:11:31;10.60;99.90
16825;DHT22;8529;48.108;-1.706;2023-04-01T07:14:02;10.60;99.90
16825;DHT22;8529;48.108;-1.706;2023-04-01T07:16:32;10.60;99.90
16825;DHT22;8529;48.108;-1.706;2023-04-01T07:19:05;10.70;99.90
16825;DHT22;8529;48.108;-1.706;2023-04-01T07:21:36;10.70;99.90
16825;DHT22;8529;48.108;-1.706;2023-04-01T07:24:11;10.70;99.90
16825;DHT22;8529;48.108;-1.706;2023-04-01T07:26:41;10.70;99.90
16825;DHT22;8529;48.108;-1.706;2023-04-01T07:29:11;10.80;99.90
16825;DHT22;8529;48.108;-1.706;2023-04-01T07:31:50;10.80;99.90
16825;DHT22;8529;48.108;-1.706;2023-04-01T07:34:23;10.80;99.90
16825;DHT22;8529;48.108;-1.706;2023-04-01T07:36:54;10.90;99.90
16825;DHT22;8529;48.108;-1.706;2023-04-01T07:39:37;11.00;99.90
16825;DHT22;8529;48.108;-1.706;2023-04-01T07:42:16;11.10;99.90
16825;DHT22;8529;48.108;-1.706;2023-04-01T07:44:52;11.20;99.90
16825;DHT22;8529;48.108;-1.706;2023-04-01T07:47:34;11.30;99.90
16825;DHT22;8529;48.108;-1.706;2023-04-01T07:50:17;11.30;99.90
16825;DHT22;8529;48.108;-1.706;2023-04-01T07:52:52;11.30;99.90
16825;DHT22;8529;48.108;-1.706;2023-04-01T07:55:24;11.40;99.90
16825;DHT22;8529;48.108;-1.706;2023-04-01T07:57:58;11.40;99.90
16825;DHT22;8529;48.108;-1.706;2023-04-01T08:00:30;11.40;99.90
16825;DHT22;8529;48.108;-1.706;2023-04-01T08:03:11;11.50;99.90
16825;DHT22;8529;48.108;-1.706;2023-04-01T08:05:49;11.70;99.90
16825;DHT22;8529;48.108;-1.706;2023-04-01T08:08:25;11.80;99.90
16825;DHT22;8529;48.108;-1.706;2023-04-01T08:10:59;11.80;99.90
16825;DHT22;8529;48.108;-1.706;2023-04-01T08:13:34;11.70;99.90
16825;DHT22;8529;48.108;-1.706;2023-04-01T08:16:11;11.70;99.90
16825;DHT22;8529;48.108;-1.706;2023-04-01T08:18:44;11.70;99.90
16825;DHT22;8529;48.108;-1.706;2023-04-01T08:21:16;11.70;99.90
16825;DHT22;8529;48.108;-1.706;2023-04-01T08:23:49;11.80;99.90
16825;DHT22;8529;48.108;-1.706;2023-04-01T08:26:26;11.80;99.90
16825;DHT22;8529;48.108;-1.706;2023-04-01T08:28:59;11.80;99.90
16825;DHT22;8529;48.108;-1.706;2023-04-01T08:31:31;11.80;99.90
16825;DHT22;8529;48.108;-1.706;2023-04-01T08:34:00;11.90;99.90
16825;DHT22;8529;48.108;-1.706;2023-04-01T08:36:33;11.90;99.90
16825;DHT22;8529;48.108;-1.706;2023-04-01T08:39:04;11.90;99.90
16825;DHT22;8529;48.108;-1.706;2023-04-01T08:42:11;12.00;99.90
16825;DHT22;8529;48.108;-1.706;2023-04-01T08:45:18;12.00;99.90
16825;DHT22;8529;48.108;-1.706;2023-04-01T08:48:06;12.00;99.90
16825;DHT22;8529;48.108;-1.706;2023-04-01T08:51:04;12.10;99.90
16825;DHT22;8529;48.108;-1.706;2023-04-01T08:56:28;12.10;99.90
16825;DHT22;8529;48.108;-1.706;2023-04-01T09:02:25;12.10;99.90
16825;DHT22;8529;48.108;-1.706;2023-04-01T09:08:08;12.40;99.90
16825;DHT22;8529;48.108;-1.706;2023-04-01T09:11:04;12.50;99.90
16825;DHT22;8529;48.108;-1.706;2023-04-01T09:13:46;12.60;99.90
16825;DHT22;8529;48.108;-1.706;2023-04-01T09:16:31;12.60;99.90
16825;DHT22;8529;48.108;-1.706;2023-04-01T09:19:21;12.60;99.90
16825;DHT22;8529;48.108;-1.706;2023-04-01T09:22:25;12.60;99.90
16825;DHT22;8529;48.108;-1.706;2023-04-01T09:25:36;12.50;99.90
16825;DHT22;8529;48.108;-1.706;2023-04-01T09:28:10;12.40;99.90
16825;DHT22;8529;48.108;-1.706;2023-04-01T09:31:05;12.40;99.90
16825;DHT22;8529;48.108;-1.706;2023-04-01T09:34:07;12.40;99.90
16825;DHT22;8529;48.108;-1.706;2023-04-01T09:36:44;12.40;99.90
16825;DHT22;8529;48.108;-1.706;2023-04-01T09:39:32;12.40;99.90
16825;DHT22;8529;48.108;-1.706;2023-04-01T09:42:14;12.40;99.90
16825;DHT22;8529;48.108;-1.706;2023-04-01T09:44:46;12.40;99.90
16825;DHT22;8529;48.108;-1.706;2023-04-01T09:47:28;12.40;99.90
16825;DHT22;8529;48.108;-1.706;2023-04-01T09:50:20;12.50;99.90
16825;DHT22;8529;48.108;-1.706;2023-04-01T09:52:57;12.40;99.90
16825;DHT22;8529;48.108;-1.706;2023-04-01T09:58:51;12.40;99.90
16825;DHT22;8529;48.108;-1.706;2023-04-01T10:01:36;12.50;99.90
16825;DHT22;8529;48.108;-1.706;2023-04-01T10:07:46;12.50;99.90
16825;DHT22;8529;48.108;-1.706;2023-04-01T10:10:47;12.50;99.90
16825;DHT22;8529;48.108;-1.706;2023-04-01T10:16:42;12.50;99.90
16825;DHT22;8529;48.108;-1.706;2023-04-01T10:22:43;12.60;99.90
16825;DHT22;8529;48.108;-1.706;2023-04-01T10:25:54;12.70;99.90
16825;DHT22;8529;48.108;-1.706;2023-04-01T10:28:41;12.80;99.90
16825;DHT22;8529;48.108;-1.706;2023-04-01T10:31:42;13.00;99.90
16825;DHT22;8529;48.108;-1.706;2023-04-01T10:37:21;13.00;99.90
16825;DHT22;8529;48.108;-1.706;2023-04-01T10:43:32;13.10;99.90
16825;DHT22;8529;48.108;-1.706;2023-04-01T10:46:28;13.10;99.90
16825;DHT22;8529;48.108;-1.706;2023-04-01T10:49:29;13.40;99.90
16825;DHT22;8529;48.108;-1.706;2023-04-01T10:52:35;13.60;99.90
16825;DHT22;8529;48.108;-1.706;2023-04-01T10:55:35;13.60;99.90
16825;DHT22;8529;48.108;-1.706;2023-04-01T11:01:39;14.10;99.90
16825;DHT22;8529;48.108;-1.706;2023-04-01T11:04:39;14.50;99.90
16825;DHT22;8529;48.108;-1.706;2023-04-01T11:07:43;14.50;99.90
16825;DHT22;8529;48.108;-1.706;2023-04-01T11:10:46;14.30;99.90
16825;DHT22;8529;48.108;-1.706;2023-04-01T11:16:33;13.90;99.90
16825;DHT22;8529;48.108;-1.706;2023-04-01T11:19:55;13.80;99.90
16825;DHT22;8529;48.108;-1.706;2023-04-01T11:22:55;13.70;99.90
16825;DHT22;8529;48.108;-1.706;2023-04-01T11:25:50;13.50;99.90
16825;DHT22;8529;48.108;-1.706;2023-04-01T11:28:47;13.50;99.90
16825;DHT22;8529;48.108;-1.706;2023-04-01T11:31:28;13.20;99.90
16825;DHT22;8529;48.108;-1.706;2023-04-01T11:34:02;13.10;99.90
16825;DHT22;8529;48.108;-1.706;2023-04-01T11:36:44;13.00;99.90
16825;DHT22;8529;48.108;-1.706;2023-04-01T11:39:24;12.80;99.90
16825;DHT22;8529;48.108;-1.706;2023-04-01T11:42:01;12.70;99.90
16825;DHT22;8529;48.108;-1.706;2023-04-01T11:44:35;12.60;99.90
16825;DHT22;8529;48.108;-1.706;2023-04-01T11:47:19;12.50;99.90
16825;DHT22;8529;48.108;-1.706;2023-04-01T11:49:59;12.50;99.90
16825;DHT22;8529;48.108;-1.706;2023-04-01T11:52:55;12.60;99.90
16825;DHT22;8529;48.108;-1.706;2023-04-01T11:55:35;12.70;99.90
16825;DHT22;8529;48.108;-1.706;2023-04-01T12:01:13;12.90;99.90
16825;DHT22;8529;48.108;-1.706;2023-04-01T12:04:05;13.00;99.90
16825;DHT22;8529;48.108;-1.706;2023-04-01T12:06:44;13.00;99.90
16825;DHT22;8529;48.108;-1.706;2023-04-01T12:09:22;13.00;99.90
16825;DHT22;8529;48.108;-1.706;2023-04-01T12:12:03;13.10;99.90
16825;DHT22;8529;48.108;-1.706;2023-04-01T12:14:43;13.30;99.90
16825;DHT22;8529;48.108;-1.706;2023-04-01T12:17:21;13.40;99.90
16825;DHT22;8529;48.108;-1.706;2023-04-01T12:19:57;13.40;99.90
16825;DHT22;8529;48.108;-1.706;2023-04-01T12:22:34;13.50;99.90
16825;DHT22;8529;48.108;-1.706;2023-04-01T12:25:21;13.60;99.90
16825;DHT22;8529;48.108;-1.706;2023-04-01T12:28:02;13.80;99.90
16825;DHT22;8529;48.108;-1.706;2023-04-01T12:30:46;13.80;99.90
16825;DHT22;8529;48.108;-1.706;2023-04-01T12:33:30;13.80;99.90
16825;DHT22;8529;48.108;-1.706;2023-04-01T12:36:08;13.90;99.90
16825;DHT22;8529;48.108;-1.706;2023-04-01T12:38:46;13.90;99.90
16825;DHT22;8529;48.108;-1.706;2023-04-01T12:41:22;13.80;99.90
16825;DHT22;8529;48.108;-1.706;2023-04-01T12:44:16;13.70;99.90
16825;DHT22;8529;48.108;-1.706;2023-04-01T12:47:11;13.40;99.90
16825;DHT22;8529;48.108;-1.706;2023-04-01T12:49:55;13.20;99.90
16825;DHT22;8529;48.108;-1.706;2023-04-01T12:52:36;13.10;99.90
16825;DHT22;8529;48.108;-1.706;2023-04-01T12:55:36;13.20;99.90
16825;DHT22;8529;48.108;-1.706;2023-04-01T13:01:19;13.70;99.90
16825;DHT22;8529;48.108;-1.706;2023-04-01T13:04:05;13.60;99.90
16825;DHT22;8529;48.108;-1.706;2023-04-01T13:06:53;13.40;99.90
16825;DHT22;8529;48.108;-1.706;2023-04-01T13:09:34;13.20;99.90
16825;DHT22;8529;48.108;-1.706;2023-04-01T13:12:20;13.10;99.90
16825;DHT22;8529;48.108;-1.706;2023-04-01T13:15:07;13.00;99.90
16825;DHT22;8529;48.108;-1.706;2023-04-01T13:17:44;12.90;99.90
16825;DHT22;8529;48.108;-1.706;2023-04-01T13:20:23;13.00;99.90
16825;DHT22;8529;48.108;-1.706;2023-04-01T13:23:05;12.90;99.90
16825;DHT22;8529;48.108;-1.706;2023-04-01T13:25:39;12.80;99.90
16825;DHT22;8529;48.108;-1.706;2023-04-01T13:28:15;12.80;99.90
16825;DHT22;8529;48.108;-1.706;2023-04-01T13:30:49;12.70;99.90
16825;DHT22;8529;48.108;-1.706;2023-04-01T13:33:27;12.80;99.90
16825;DHT22;8529;48.108;-1.706;2023-04-01T13:36:06;12.70;99.90
16825;DHT22;8529;48.108;-1.706;2023-04-01T13:38:55;12.80;99.90
16825;DHT22;8529;48.108;-1.706;2023-04-01T13:41:38;12.80;99.90
16825;DHT22;8529;48.108;-1.706;2023-04-01T13:44:12;12.90;99.90
16825;DHT22;8529;48.108;-1.706;2023-04-01T13:47:08;13.00;99.90
16825;DHT22;8529;48.108;-1.706;2023-04-01T13:52:43;13.50;99.90
16825;DHT22;8529;48.108;-1.706;2023-04-01T13:55:32;13.60;99.90
16825;DHT22;8529;48.108;-1.706;2023-04-01T14:01:15;13.40;99.90
16825;DHT22;8529;48.108;-1.706;2023-04-01T14:04:17;13.30;99.90
16825;DHT22;8529;48.108;-1.706;2023-04-01T14:07:00;13.30;99.90
16825;DHT22;8529;48.108;-1.706;2023-04-01T14:09:45;13.40;99.90
16825;DHT22;8529;48.108;-1.706;2023-04-01T14:12:26;13.60;99.90
16825;DHT22;8529;48.108;-1.706;2023-04-01T14:15:09;13.60;99.90
16825;DHT22;8529;48.108;-1.706;2023-04-01T14:17:54;13.60;99.90
16825;DHT22;8529;48.108;-1.706;2023-04-01T14:20:37;13.70;99.90
16825;DHT22;8529;48.108;-1.706;2023-04-01T14:23:22;13.70;99.90
16825;DHT22;8529;48.108;-1.706;2023-04-01T14:26:10;13.70;99.90
16825;DHT22;8529;48.108;-1.706;2023-04-01T14:28:48;13.60;99.90
16825;DHT22;8529;48.108;-1.706;2023-04-01T14:31:27;13.60;99.90
16825;DHT22;8529;48.108;-1.706;2023-04-01T14:34:06;13.50;99.90
16825;DHT22;8529;48.108;-1.706;2023-04-01T14:36:47;13.30;99.90
16825;DHT22;8529;48.108;-1.706;2023-04-01T14:39:56;13.20;99.90
16825;DHT22;8529;48.108;-1.706;2023-04-01T14:45:46;13.20;99.90
16825;DHT22;8529;48.108;-1.706;2023-04-01T14:48:25;13.10;99.90
16825;DHT22;8529;48.108;-1.706;2023-04-01T14:50:54;13.10;99.90
16825;DHT22;8529;48.108;-1.706;2023-04-01T14:53:29;13.00;99.90
16825;DHT22;8529;48.108;-1.706;2023-04-01T14:55:59;13.10;99.90
16825;DHT22;8529;48.108;-1.706;2023-04-01T14:58:41;13.10;99.90
16825;DHT22;8529;48.108;-1.706;2023-04-01T15:01:23;13.10;99.90
16825;DHT22;8529;48.108;-1.706;2023-04-01T15:03:58;13.10;99.90
16825;DHT22;8529;48.108;-1.706;2023-04-01T15:06:39;13.20;99.90
16825;DHT22;8529;48.108;-1.706;2023-04-01T15:09:14;13.20;99.90
16825;DHT22;8529;48.108;-1.706;2023-04-01T15:11:54;13.20;99.90
16825;DHT22;8529;48.108;-1.706;2023-04-01T15:14:37;13.20;99.90
16825;DHT22;8529;48.108;-1.706;2023-04-01T15:17:22;13.20;99.90
16825;DHT22;8529;48.108;-1.706;2023-04-01T15:20:04;13.20;99.90
16825;DHT22;8529;48.108;-1.706;2023-04-01T15:23:02;13.30;99.90
16825;DHT22;8529;48.108;-1.706;2023-04-01T15:25:45;13.30;99.90
16825;DHT22;8529;48.108;-1.706;2023-04-01T15:28:24;13.40;99.90
16825;DHT22;8529;48.108;-1.706;2023-04-01T15:30:58;13.40;99.90
16825;DHT22;8529;48.108;-1.706;2023-04-01T15:33:49;13.40;99.90
16825;DHT22;8529;48.108;-1.706;2023-04-01T15:36:31;13.40;99.90
16825;DHT22;8529;48.108;-1.706;2023-04-01T15:39:09;13.50;99.90
16825;DHT22;8529;48.108;-1.706;2023-04-01T15:41:46;13.50;99.90
16825;DHT22;8529;48.108;-1.706;2023-04-01T15:44:42;13.40;99.90
16825;DHT22;8529;48.108;-1.706;2023-04-01T15:47:32;13.50;99.90
16825;DHT22;8529;48.108;-1.706;2023-04-01T15:50:21;13.50;99.90
16825;DHT22;8529;48.108;-1.706;2023-04-01T15:53:01;13.60;99.90
16825;DHT22;8529;48.108;-1.706;2023-04-01T15:55:31;13.60;99.90
16825;DHT22;8529;48.108;-1.706;2023-04-01T15:58:35;13.70;99.90
16825;DHT22;8529;48.108;-1.706;2023-04-01T16:01:13;13.70;99.90
16825;DHT22;8529;48.108;-1.706;2023-04-01T16:03:49;13.80;99.90
16825;DHT22;8529;48.108;-1.706;2023-04-01T16:06:39;13.80;99.90
16825;DHT22;8529;48.108;-1.706;2023-04-01T16:09:32;13.80;99.90
16825;DHT22;8529;48.108;-1.706;2023-04-01T16:12:09;13.80;99.90
16825;DHT22;8529;48.108;-1.706;2023-04-01T16:14:54;13.70;99.90
16825;DHT22;8529;48.108;-1.706;2023-04-01T16:17:34;13.70;99.90
16825;DHT22;8529;48.108;-1.706;2023-04-01T16:20:13;13.60;99.90
16825;DHT22;8529;48.108;-1.706;2023-04-01T16:22:46;13.50;99.90
16825;DHT22;8529;48.108;-1.706;2023-04-01T16:25:20;13.50;99.90
16825;DHT22;8529;48.108;-1.706;2023-04-01T16:28:04;13.50;99.90
16825;DHT22;8529;48.108;-1.706;2023-04-01T16:30:39;13.50;99.90
16825;DHT22;8529;48.108;-1.706;2023-04-01T16:33:14;13.50;99.90
16825;DHT22;8529;48.108;-1.706;2023-04-01T16:35:46;13.50;99.90
16825;DHT22;8529;48.108;-1.706;2023-04-01T16:38:19;13.50;99.90
16825;DHT22;8529;48.108;-1.706;2023-04-01T16:40:59;13.50;99.90
16825;DHT22;8529;48.108;-1.706;2023-04-01T16:43:35;13.40;99.90
16825;DHT22;8529;48.108;-1.706;2023-04-01T16:46:29;13.40;99.90
16825;DHT22;8529;48.108;-1.706;2023-04-01T16:49:00;13.40;99.90
16825;DHT22;8529;48.108;-1.706;2023-04-01T16:51:44;13.40;99.90
16825;DHT22;8529;48.108;-1.706;2023-04-01T16:54:17;13.40;99.90
16825;DHT22;8529;48.108;-1.706;2023-04-01T16:56:48;13.40;99.90
16825;DHT22;8529;48.108;-1.706;2023-04-01T16:59:21;13.30;99.90
16825;DHT22;8529;48.108;-1.706;2023-04-01T17:01:53;13.30;99.90
16825;DHT22;8529;48.108;-1.706;2023-04-01T17:04:29;13.30;99.90
16825;DHT22;8529;48.108;-1.706;2023-04-01T17:07:05;13.30;99.90
16825;DHT22;8529;48.108;-1.706;2023-04-01T17:09:46;13.30;99.90
16825;DHT22;8529;48.108;-1.706;2023-04-01T17:12:20;13.30;99.90
16825;DHT22;8529;48.108;-1.706;2023-04-01T17:14:57;13.20;99.90
16825;DHT22;8529;48.108;-1.706;2023-04-01T17:17:34;13.20;99.90
16825;DHT22;8529;48.108;-1.706;2023-04-01T17:20:19;13.10;99.90
16825;DHT22;8529;48.108;-1.706;2023-04-01T17:22:54;13.00;99.90
16825;DHT22;8529;48.108;-1.706;2023-04-01T17:25:48;13.00;99.90
16825;DHT22;8529;48.108;-1.706;2023-04-01T17:28:26;12.90;99.90
16825;DHT22;8529;48.108;-1.706;2023-04-01T17:31:00;12.90;99.90
16825;DHT22;8529;48.108;-1.706;2023-04-01T17:33:49;12.80;99.90
16825;DHT22;8529;48.108;-1.706;2023-04-01T17:36:27;12.80;99.90
16825;DHT22;8529;48.108;-1.706;2023-04-01T17:39:11;12.80;99.90